createdAt,value
2018-05-16T00:01:47.141Z,2.97
2018-05-16T00:04:15.792Z,3.63
2018-05-16T00:06:44.351Z,3.63
2018-05-16T00:09:12.883Z,3.57
2018-05-16T00:11:41.472Z,4.00
2018-05-16T00:14:10.013Z,3.90
2018-05-16T00:16:38.510Z,3.23
2018-05-16T00:19:07.050Z,3.60
2018-05-16T00:21:36.312Z,4.07
2018-05-16T00:24:04.840Z,4.30
2018-05-16T00:26:34.100Z,4.70
2018-05-16T00:29:02.633Z,4.60
2018-05-16T00:31:31.175Z,4.63
2018-05-16T00:33:59.683Z,4.87
2018-05-16T00:36:28.977Z,5.40
2018-05-16T00:38:58.244Z,5.13
2018-05-16T00:41:26.448Z,4.50
2018-05-16T00:43:55.717Z,4.70
2018-05-16T00:46:24.299Z,4.60
2018-05-16T00:48:52.833Z,4.53
2018-05-16T00:51:32.628Z,4.47
2018-05-16T00:54:01.186Z,4.90
2018-05-16T00:56:29.783Z,5.27
2018-05-16T00:58:58.319Z,5.60
2018-05-16T01:01:27.449Z,5.13
2018-05-16T01:03:56.011Z,5.87
2018-05-16T01:06:24.521Z,4.57
2018-05-16T01:08:53.049Z,4.10
2018-05-16T01:11:22.378Z,5.60
2018-05-16T01:13:50.910Z,5.40
2018-05-16T01:16:19.449Z,5.10
2018-05-16T01:18:47.943Z,4.97
2018-05-16T01:21:16.469Z,4.60
2018-05-16T01:23:44.972Z,6.03
2018-05-16T01:26:14.264Z,4.57
2018-05-16T01:28:42.793Z,5.63
2018-05-16T01:31:11.292Z,6.70
2018-05-16T01:33:39.825Z,6.30
2018-05-16T01:36:09.213Z,4.67
2018-05-16T01:38:38.516Z,5.80
2018-05-16T01:41:07.798Z,6.50
2018-05-16T01:43:36.328Z,6.00
2018-05-16T01:46:04.859Z,6.20
2018-05-16T01:48:33.355Z,6.83
2018-05-16T01:51:01.885Z,6.20
2018-05-16T01:53:30.493Z,6.53
2018-05-16T01:55:59.017Z,6.60
2018-05-16T01:58:27.527Z,5.03
2018-05-16T02:00:56.063Z,5.23
2018-05-16T02:03:24.602Z,6.07
2018-05-16T02:05:53.099Z,5.53
2018-05-16T02:08:21.652Z,6.40
2018-05-16T02:10:50.163Z,6.13
2018-05-16T02:13:18.696Z,7.00
2018-05-16T02:15:47.962Z,7.03
2018-05-16T02:18:16.492Z,7.00
2018-05-16T02:20:45.016Z,6.90
2018-05-16T02:23:13.529Z,6.50
2018-05-16T02:25:42.824Z,6.60
2018-05-16T02:28:11.323Z,5.63
2018-05-16T02:30:40.624Z,7.37
2018-05-16T02:33:09.131Z,7.47
2018-05-16T02:35:37.744Z,6.93
2018-05-16T02:38:06.271Z,7.23
2018-05-16T02:40:35.537Z,7.37
2018-05-16T02:43:04.069Z,7.83
2018-05-16T02:45:32.641Z,8.20
2018-05-16T02:48:01.182Z,6.37
2018-05-16T02:50:29.693Z,9.27
2018-05-16T02:52:58.989Z,8.00
2018-05-16T02:55:28.291Z,9.60
2018-05-16T02:57:57.599Z,7.67
2018-05-16T03:00:26.912Z,9.67
2018-05-16T03:02:55.442Z,6.90
2018-05-16T03:05:23.948Z,9.00
2018-05-16T03:07:53.260Z,8.77
2018-05-16T03:10:22.533Z,6.93
2018-05-16T03:12:51.065Z,6.50
2018-05-16T03:15:19.599Z,7.47
2018-05-16T03:17:48.099Z,5.93
2018-05-16T03:20:17.493Z,7.37
2018-05-16T03:22:46.942Z,6.93
2018-05-16T03:25:15.477Z,6.47
2018-05-16T03:27:43.990Z,7.03
2018-05-16T03:30:12.515Z,7.83
2018-05-16T03:32:41.046Z,7.00
2018-05-16T03:35:10.356Z,7.00
2018-05-16T03:37:38.884Z,6.40
2018-05-16T03:40:07.391Z,6.43
2018-05-16T03:42:36.271Z,6.50
2018-05-16T03:45:04.797Z,5.77
2018-05-16T03:47:33.359Z,5.73
2018-05-16T03:50:02.855Z,4.70
2018-05-16T03:52:32.133Z,5.60
2018-05-16T03:55:00.664Z,4.87
2018-05-16T03:57:40.337Z,5.00
2018-05-16T04:00:19.812Z,5.80
2018-05-16T04:02:59.424Z,4.70
2018-05-16T04:05:27.984Z,4.87
2018-05-16T04:07:56.490Z,5.37
2018-05-16T04:10:25.110Z,4.40
2018-05-16T04:12:54.644Z,4.80
2018-05-16T04:15:23.250Z,5.13
2018-05-16T04:17:51.845Z,4.50
2018-05-16T04:20:20.424Z,4.30
2018-05-16T04:22:49.002Z,5.03
2018-05-16T04:25:18.352Z,5.37
2018-05-16T04:27:47.724Z,5.10
2018-05-16T04:30:16.275Z,5.17
2018-05-16T04:32:44.890Z,5.07
2018-05-16T04:35:13.665Z,4.83
2018-05-16T04:37:42.280Z,4.93
2018-05-16T04:40:10.894Z,5.07
2018-05-16T04:42:39.445Z,5.53
2018-05-16T04:45:08.055Z,5.20
2018-05-16T04:47:36.633Z,10.50
2018-05-16T04:50:06.013Z,6.93
2018-05-16T04:52:34.615Z,5.93
2018-05-16T04:55:03.992Z,5.50
2018-05-16T04:57:32.573Z,6.43
2018-05-16T05:00:01.185Z,5.20
2018-05-16T05:02:30.522Z,4.57
2018-05-16T05:04:59.140Z,4.67
2018-05-16T05:07:27.704Z,5.03
2018-05-16T05:09:56.317Z,5.70
2018-05-16T05:12:24.924Z,5.40
2018-05-16T05:14:54.267Z,5.10
2018-05-16T05:17:22.898Z,4.97
2018-05-16T05:19:52.200Z,5.40
2018-05-16T05:22:21.585Z,5.50
2018-05-16T05:24:50.182Z,5.10
2018-05-16T05:27:19.541Z,5.43
2018-05-16T05:29:48.870Z,5.33
2018-05-16T05:32:17.449Z,5.37
2018-05-16T05:34:46.090Z,5.47
2018-05-16T05:37:14.697Z,4.97
2018-05-16T05:39:43.286Z,5.70
2018-05-16T05:42:11.889Z,5.00
2018-05-16T05:44:40.477Z,5.20
2018-05-16T05:47:09.072Z,5.27
2018-05-16T05:49:38.417Z,4.97
2018-05-16T05:52:07.186Z,5.23
2018-05-16T05:54:35.757Z,4.60
2018-05-16T05:57:05.149Z,4.87
2018-05-16T05:59:34.493Z,5.63
2018-05-16T06:02:03.053Z,5.00
2018-05-16T06:04:31.651Z,5.17
2018-05-16T06:07:00.241Z,5.20
2018-05-16T06:09:28.825Z,5.30
2018-05-16T06:11:57.413Z,5.13
2018-05-16T06:14:26.022Z,5.27
2018-05-16T06:16:54.641Z,5.60
2018-05-16T06:19:24.015Z,5.63
2018-05-16T06:21:52.633Z,5.57
2018-05-16T06:24:21.235Z,5.13
2018-05-16T06:26:49.828Z,5.20
2018-05-16T06:29:18.434Z,5.00
2018-05-16T06:31:46.984Z,4.97
2018-05-16T06:37:09.660Z,5.30
2018-05-16T06:39:38.285Z,5.43
2018-05-16T06:42:06.863Z,5.80
2018-05-16T06:44:35.467Z,5.43
2018-05-16T06:47:04.824Z,5.00
2018-05-16T06:49:33.382Z,5.33
2018-05-16T06:52:02.044Z,5.20
2018-05-16T06:54:31.349Z,5.87
2018-05-16T06:57:00.755Z,5.20
2018-05-16T06:59:45.983Z,5.37
2018-05-16T07:02:14.590Z,5.83
2018-05-16T07:04:43.152Z,5.43
2018-05-16T07:07:11.762Z,5.23
2018-05-16T07:09:40.590Z,5.23
2018-05-16T07:12:09.202Z,5.43
2018-05-16T07:14:37.817Z,5.27
2018-05-16T07:17:07.166Z,6.07
2018-05-16T07:19:35.754Z,5.50
2018-05-16T07:22:04.321Z,5.63
2018-05-16T07:24:33.721Z,5.63
2018-05-16T07:27:02.321Z,5.73
2018-05-16T07:29:30.896Z,6.07
2018-05-16T07:31:59.483Z,5.40
2018-05-16T07:34:28.033Z,5.93
2018-05-16T07:36:56.635Z,6.30
2018-05-16T07:39:38.839Z,6.20
2018-05-16T07:42:07.468Z,5.53
2018-05-16T07:44:36.866Z,6.23
2018-05-16T07:47:05.544Z,6.67
2018-05-16T07:49:34.246Z,6.43
2018-05-16T07:52:02.810Z,5.93
2018-05-16T07:54:31.677Z,6.27
2018-05-16T07:57:00.310Z,6.60
2018-05-16T07:59:28.933Z,6.23
2018-05-16T08:01:57.528Z,7.03
2018-05-16T08:04:26.162Z,5.83
2018-05-16T08:06:54.817Z,6.70
2018-05-16T08:09:23.382Z,6.00
2018-05-16T08:11:51.994Z,5.93
2018-05-16T08:14:20.600Z,6.53
2018-05-16T08:16:49.219Z,6.70
2018-05-16T08:19:17.847Z,6.83
2018-05-16T08:21:46.446Z,6.80
2018-05-16T08:24:15.056Z,6.40
2018-05-16T08:26:44.397Z,6.13
2018-05-16T08:29:12.991Z,6.60
2018-05-16T08:31:42.569Z,6.43
2018-05-16T08:34:11.164Z,6.67
2018-05-16T08:36:39.747Z,6.67
2018-05-16T08:39:08.362Z,5.67
2018-05-16T08:41:36.935Z,5.70
2018-05-16T08:44:13.230Z,5.77
2018-05-16T08:46:41.883Z,5.90
2018-05-16T08:49:10.439Z,6.73
2018-05-16T08:51:39.032Z,6.30
2018-05-16T08:54:07.652Z,5.97
2018-05-16T08:56:36.269Z,6.00
2018-05-16T08:59:05.680Z,6.40
2018-05-16T09:01:34.330Z,5.97
2018-05-16T09:04:02.960Z,6.00
2018-05-16T09:06:31.676Z,5.73
2018-05-16T09:09:00.332Z,5.60
2018-05-16T09:11:28.953Z,5.47
2018-05-16T09:13:57.760Z,5.57
2018-05-16T09:16:26.328Z,5.47
2018-05-16T09:18:54.904Z,4.70
2018-05-16T09:21:24.213Z,5.83
2018-05-16T09:23:52.769Z,5.00
2018-05-16T09:26:21.461Z,4.90
2018-05-16T09:28:50.021Z,4.90
2018-05-16T09:31:18.646Z,4.90
2018-05-16T09:33:47.210Z,4.53
2018-05-16T09:36:15.834Z,4.67
2018-05-16T09:38:44.400Z,5.57
2018-05-16T09:41:12.972Z,4.67
2018-05-16T09:43:41.589Z,4.63
2018-05-16T09:46:10.324Z,4.30
2018-05-16T09:48:39.067Z,4.80
2018-05-16T09:51:07.651Z,4.73
2018-05-16T09:53:36.229Z,5.27
2018-05-16T09:56:04.799Z,4.80
2018-05-16T09:58:33.404Z,4.90
2018-05-16T10:01:04.946Z,4.60
2018-05-16T10:03:33.662Z,4.67
2018-05-16T10:06:21.751Z,5.53
2018-05-16T10:08:50.389Z,4.83
2018-05-16T10:11:18.942Z,4.83
2018-05-16T10:14:02.067Z,4.50
2018-05-16T10:16:30.627Z,4.30
2018-05-16T10:18:58.937Z,4.93
2018-05-16T10:21:28.311Z,4.90
2018-05-16T10:23:56.895Z,5.30
2018-05-16T10:26:25.511Z,5.00
2018-05-16T10:28:54.847Z,5.10
2018-05-16T10:31:23.441Z,5.43
2018-05-16T10:33:52.051Z,4.50
2018-05-16T10:36:20.633Z,4.27
2018-05-16T10:38:49.249Z,4.70
2018-05-16T10:41:18.634Z,4.30
2018-05-16T10:43:48.109Z,4.17
2018-05-16T10:46:17.487Z,5.07
2018-05-16T10:48:46.225Z,4.27
2018-05-16T10:51:15.597Z,4.43
2018-05-16T10:53:44.182Z,4.93
2018-05-16T10:56:12.778Z,4.10
2018-05-16T10:58:41.347Z,4.10
2018-05-16T11:01:09.959Z,4.27
2018-05-16T11:03:38.573Z,4.67
2018-05-16T11:06:07.887Z,4.30
2018-05-16T11:08:36.517Z,4.40
2018-05-16T11:11:05.128Z,4.10
2018-05-16T11:13:34.488Z,4.40
2018-05-16T11:16:03.076Z,4.70
2018-05-16T11:18:31.632Z,4.33
2018-05-16T11:21:00.210Z,3.87
2018-05-16T11:23:28.809Z,4.13
2018-05-16T11:25:57.395Z,3.50
2018-05-16T11:28:25.968Z,4.07
2018-05-16T11:30:54.552Z,4.13
2018-05-16T11:33:23.222Z,4.13
2018-05-16T11:35:51.805Z,4.30
2018-05-16T11:38:20.377Z,4.00
2018-05-16T11:40:49.701Z,3.33
2018-05-16T11:43:18.257Z,3.33
2018-05-16T11:45:47.628Z,3.63
2018-05-16T11:48:16.193Z,4.03
2018-05-16T11:50:44.731Z,4.10
2018-05-16T11:53:13.381Z,3.97
2018-05-16T11:55:41.995Z,3.80
2018-05-16T11:58:11.383Z,3.33
2018-05-16T12:00:40.040Z,3.70
2018-05-16T12:03:08.606Z,3.67
2018-05-16T12:05:37.200Z,4.07
2018-05-16T12:08:05.812Z,3.30
2018-05-16T12:10:34.427Z,4.07
2018-05-16T12:13:02.994Z,3.10
2018-05-16T12:15:32.357Z,3.50
2018-05-16T12:18:00.988Z,3.57
2018-05-16T12:20:30.349Z,3.70
2018-05-16T12:22:59.008Z,3.80
2018-05-16T12:25:27.610Z,3.70
2018-05-16T12:27:56.436Z,3.80
2018-05-16T12:30:25.040Z,3.33
2018-05-16T12:32:53.625Z,3.67
2018-05-16T12:35:22.188Z,3.80
2018-05-16T12:37:51.551Z,3.37
2018-05-16T12:40:20.148Z,3.20
2018-05-16T12:42:59.900Z,3.33
2018-05-16T12:45:28.462Z,4.00
2018-05-16T12:47:57.074Z,3.27
2018-05-16T12:50:25.748Z,3.80
2018-05-16T12:52:54.317Z,3.30
2018-05-16T12:55:22.900Z,3.50
2018-05-16T12:57:51.480Z,3.33
2018-05-16T13:00:20.032Z,3.87
2018-05-16T13:02:48.648Z,3.20
2018-05-16T13:05:17.221Z,3.10
2018-05-16T13:07:45.885Z,2.53
2018-05-16T13:10:14.502Z,2.90
2018-05-16T13:12:43.233Z,3.10
2018-05-16T13:15:11.843Z,3.00
2018-05-16T13:17:40.442Z,3.23
2018-05-16T13:20:10.002Z,3.10
2018-05-16T13:22:39.345Z,3.23
2018-05-16T13:25:07.952Z,3.23
2018-05-16T13:27:36.562Z,3.87
2018-05-16T13:30:04.814Z,3.50
2018-05-16T13:32:33.405Z,3.20
2018-05-16T13:35:02.008Z,3.63
2018-05-16T13:37:30.603Z,3.97
2018-05-16T13:39:59.996Z,4.47
2018-05-16T13:42:29.386Z,4.33
2018-05-16T13:44:57.960Z,3.90
2018-05-16T13:47:26.556Z,9.23
2018-05-16T13:49:55.194Z,39.50
2018-05-16T13:52:23.821Z,29.50
2018-05-16T13:54:52.428Z,9.03
2018-05-16T14:00:17.418Z,27.20
2018-05-16T14:02:46.044Z,4.50
2018-05-16T14:05:15.585Z,4.53
2018-05-16T14:07:44.184Z,4.27
2018-05-16T14:10:12.764Z,4.10
2018-05-16T14:12:41.575Z,4.00
2018-05-16T14:15:11.188Z,4.10
2018-05-16T14:17:40.632Z,3.97
2018-05-16T14:20:09.259Z,4.07
2018-05-16T14:22:38.006Z,4.30
2018-05-16T14:25:06.633Z,4.53
2018-05-16T14:27:35.221Z,5.10
2018-05-16T14:30:03.498Z,4.17
2018-05-16T14:32:32.064Z,3.53
2018-05-16T14:35:00.661Z,4.20
2018-05-16T14:37:29.244Z,4.10
2018-05-16T14:39:57.793Z,4.13
2018-05-16T14:42:26.398Z,4.30
2018-05-16T14:47:52.216Z,4.20
2018-05-16T14:50:21.598Z,4.60
2018-05-16T14:52:50.180Z,4.37
2018-05-16T14:55:18.786Z,4.60
2018-05-16T14:57:47.405Z,4.47
2018-05-16T15:00:15.998Z,4.90
2018-05-16T15:02:44.689Z,4.77
2018-05-16T15:05:13.318Z,4.80
2018-05-16T15:07:41.897Z,5.30
2018-05-16T15:10:10.518Z,5.47
2018-05-16T15:12:39.112Z,6.63
2018-05-16T15:15:07.703Z,5.87
2018-05-16T15:17:36.691Z,5.63
2018-05-16T15:20:05.769Z,5.97
2018-05-16T15:22:34.380Z,6.47
2018-05-16T15:25:03.478Z,5.97
2018-05-16T15:27:32.867Z,5.70
2018-05-16T15:30:01.500Z,5.90
2018-05-16T15:32:30.035Z,6.23
2018-05-16T15:34:58.613Z,6.23
2018-05-16T15:37:27.206Z,6.50
2018-05-16T15:40:11.994Z,6.40
2018-05-16T15:42:40.600Z,6.27
2018-05-16T15:45:09.288Z,6.10
2018-05-16T15:47:37.886Z,6.07
2018-05-16T15:50:07.267Z,6.00
2018-05-16T15:52:42.275Z,6.33
2018-05-16T15:55:11.022Z,6.63
2018-05-16T15:57:39.938Z,6.00
2018-05-16T16:00:10.677Z,6.53
2018-05-16T16:02:40.038Z,6.87
2018-05-16T16:05:08.317Z,6.97
2018-05-16T16:07:36.739Z,6.50
2018-05-16T16:10:05.833Z,7.10
2018-05-16T16:12:35.755Z,7.00
2018-05-16T16:15:04.086Z,7.10
2018-05-16T16:17:32.684Z,6.07
2018-05-16T16:20:01.318Z,6.77
2018-05-16T16:22:42.900Z,6.90
2018-05-16T16:25:11.469Z,6.40
2018-05-16T16:27:40.827Z,6.97
2018-05-16T16:30:09.473Z,6.63
2018-05-16T16:32:38.062Z,5.60
2018-05-16T16:35:06.676Z,5.70
2018-05-16T16:37:36.052Z,5.27
2018-05-16T16:40:04.418Z,6.03
2018-05-16T16:42:33.029Z,5.57
2018-05-16T16:45:01.622Z,5.67
2018-05-16T16:47:30.216Z,6.27
2018-05-16T16:49:58.786Z,4.73
2018-05-16T16:52:27.396Z,4.70
2018-05-16T16:54:55.937Z,5.73
2018-05-16T16:57:25.601Z,5.23
2018-05-16T16:59:54.351Z,5.27
2018-05-16T17:02:23.104Z,5.30
2018-05-16T17:04:51.860Z,4.63
2018-05-16T17:07:20.423Z,4.63
2018-05-16T17:09:49.038Z,5.07
2018-05-16T17:12:22.462Z,5.10
2018-05-16T17:15:03.159Z,5.10
2018-05-16T17:17:43.516Z,4.90
2018-05-16T17:20:12.199Z,4.60
2018-05-16T17:22:40.776Z,4.73
2018-05-16T17:25:09.417Z,5.13
2018-05-16T17:27:38.022Z,5.00
2018-05-16T17:30:06.715Z,4.47
2018-05-16T17:32:35.310Z,4.70
2018-05-16T17:35:03.902Z,5.00
2018-05-16T17:37:32.501Z,4.40
2018-05-16T17:40:01.099Z,4.37
2018-05-16T17:42:30.896Z,4.47
2018-05-16T17:44:59.507Z,5.00
2018-05-16T17:47:28.139Z,5.00
2018-05-16T17:49:57.564Z,5.47
2018-05-16T17:52:26.349Z,4.70
2018-05-16T17:55:03.505Z,4.27
2018-05-16T17:57:45.858Z,4.40
2018-05-16T18:03:07.333Z,4.40
2018-05-16T18:05:36.723Z,4.53
2018-05-16T18:08:05.350Z,4.17
2018-05-16T18:10:33.929Z,3.87
2018-05-16T18:16:29.756Z,5.13
2018-05-16T18:18:59.059Z,4.57
2018-05-16T18:21:28.388Z,4.20
2018-05-16T18:26:49.877Z,4.10
2018-05-16T18:29:18.428Z,4.83
2018-05-16T18:31:57.116Z,4.63
2018-05-16T18:34:25.653Z,4.83
2018-05-16T18:36:54.153Z,4.77
2018-05-16T18:39:23.461Z,4.83
2018-05-16T18:41:52.741Z,4.90
2018-05-16T18:44:22.055Z,4.70
2018-05-16T18:46:51.456Z,4.97
2018-05-16T18:52:14.101Z,4.67
2018-05-16T18:54:42.643Z,4.80
2018-05-16T18:57:16.422Z,5.20
2018-05-16T18:59:45.751Z,5.07
2018-05-16T19:02:14.375Z,4.57
2018-05-16T19:04:43.043Z,4.90
2018-05-16T19:07:12.348Z,5.40
2018-05-16T19:09:40.860Z,4.70
2018-05-16T19:12:10.173Z,5.53
2018-05-16T19:14:39.547Z,5.40
2018-05-16T19:17:08.562Z,5.95
2018-05-16T19:19:37.906Z,5.07
2018-05-16T19:22:06.653Z,4.70
2018-05-16T19:24:35.952Z,5.10
2018-05-16T19:27:05.422Z,5.60
2018-05-16T19:29:33.953Z,5.50
2018-05-16T19:32:02.557Z,5.10
2018-05-16T19:34:31.071Z,5.00
2018-05-16T19:36:59.604Z,5.27
2018-05-16T19:39:28.150Z,5.13
2018-05-16T19:41:56.657Z,5.13
2018-05-16T19:44:25.977Z,4.97
2018-05-16T19:46:54.509Z,5.60
2018-05-16T19:49:23.070Z,4.73
2018-05-16T19:51:51.617Z,5.53
2018-05-16T19:54:20.136Z,4.93
2018-05-16T19:56:48.793Z,5.70
2018-05-16T19:59:17.304Z,4.87
2018-05-16T20:01:45.862Z,5.00
2018-05-16T20:04:14.397Z,5.53
2018-05-16T20:06:42.926Z,5.60
2018-05-16T20:09:11.525Z,6.30
2018-05-16T20:11:40.269Z,4.93
2018-05-16T20:14:09.559Z,5.60
2018-05-16T20:16:38.092Z,5.73
2018-05-16T20:19:06.720Z,6.30
2018-05-16T20:21:51.600Z,5.47
2018-05-16T20:24:20.876Z,5.93
2018-05-16T20:26:49.420Z,5.90
2018-05-16T20:29:18.022Z,5.23
2018-05-16T20:31:46.661Z,5.10
2018-05-16T20:34:15.956Z,5.30
2018-05-16T20:36:45.231Z,6.10
2018-05-16T20:39:13.777Z,5.27
2018-05-16T20:41:42.331Z,5.53
2018-05-16T20:44:10.839Z,5.93
2018-05-16T20:46:39.380Z,5.30
2018-05-16T20:49:08.651Z,6.30
2018-05-16T20:51:37.236Z,6.10
2018-05-16T20:54:05.768Z,6.33
2018-05-16T20:56:34.276Z,5.97
2018-05-16T20:59:02.819Z,5.50
2018-05-16T21:01:32.092Z,6.03
2018-05-16T21:04:15.927Z,6.47
2018-05-16T21:06:44.463Z,5.67
2018-05-16T21:09:12.960Z,6.13
2018-05-16T21:11:41.488Z,5.03
2018-05-16T21:14:10.764Z,5.57
2018-05-16T21:16:39.299Z,5.80
2018-05-16T21:19:07.844Z,5.87
2018-05-16T21:21:36.392Z,6.00
2018-05-16T21:24:04.927Z,5.80
2018-05-16T21:26:34.197Z,5.60
2018-05-16T21:29:02.736Z,5.73
2018-05-16T21:31:31.272Z,5.97
2018-05-16T21:33:59.772Z,5.17
2018-05-16T21:36:29.071Z,5.83
2018-05-16T21:38:57.596Z,5.80
2018-05-16T21:41:26.158Z,6.20
2018-05-16T21:43:54.688Z,6.43
2018-05-16T21:46:23.207Z,7.30
2018-05-16T21:48:52.514Z,6.20
2018-05-16T21:51:21.011Z,6.20
2018-05-16T21:53:49.548Z,5.90
2018-05-16T21:56:21.820Z,6.73
2018-05-16T21:58:50.349Z,6.73
2018-05-16T22:01:18.880Z,6.13
2018-05-16T22:03:47.413Z,6.77
2018-05-16T22:06:15.945Z,5.83
2018-05-16T22:08:44.478Z,6.47
2018-05-16T22:11:13.016Z,6.57
2018-05-16T22:13:41.599Z,6.33
2018-05-16T22:16:10.133Z,6.63
2018-05-16T22:18:38.756Z,7.60
2018-05-16T22:21:07.269Z,7.90
2018-05-16T22:23:36.569Z,6.57
2018-05-16T22:26:05.872Z,6.10
2018-05-16T22:28:34.381Z,7.23
2018-05-16T22:31:08.381Z,5.77
2018-05-16T22:33:42.456Z,6.63
2018-05-16T22:36:17.266Z,6.67
2018-05-16T22:38:51.288Z,7.30
2018-05-16T22:41:25.313Z,7.73
2018-05-16T22:47:00.209Z,7.53
2018-05-16T22:49:28.737Z,7.30
2018-05-16T22:51:58.049Z,8.70
2018-05-16T22:54:27.355Z,7.20
2018-05-16T22:56:56.644Z,7.77
2018-05-16T22:59:26.025Z,8.70
2018-05-16T23:01:55.427Z,7.73
2018-05-16T23:04:23.971Z,8.33
2018-05-16T23:06:52.516Z,9.77
2018-05-16T23:09:21.796Z,9.50
2018-05-16T23:11:50.341Z,8.77
2018-05-16T23:14:18.856Z,9.67
2018-05-16T23:16:47.403Z,11.97
2018-05-16T23:19:15.948Z,10.47
2018-05-16T23:21:45.237Z,10.10
2018-05-16T23:24:14.548Z,8.13
2018-05-16T23:26:43.836Z,9.00
2018-05-16T23:29:13.156Z,9.57
2018-05-16T23:31:42.469Z,10.17
2018-05-16T23:34:10.985Z,9.67
2018-05-16T23:36:39.532Z,9.40
2018-05-16T23:39:08.048Z,10.00
2018-05-16T23:41:36.593Z,8.60
2018-05-16T23:44:05.136Z,8.13
2018-05-16T23:46:33.336Z,8.47
2018-05-16T23:49:02.649Z,10.00
2018-05-16T23:51:31.169Z,9.20
2018-05-16T23:53:59.703Z,7.70
2018-05-16T23:56:29.019Z,9.10
2018-05-16T23:58:57.531Z,7.50
